Etusivu
METAR-TAF:

METAR-TAF

Lentoasemat :

Ateena, Kreikka

Ateenan kansainvälinen lentoasema

Leveyspiiri: 37-56N, Pituuspiiri: 023-56E, korkeus merenpinnasta: 94 m

Tämänhetkinen sää

Tämä raportti tehtiin 37 minuuttia sitten, kello 06.20 UTC
Tuuli 1 kn eri suunnista
Lämpötila 11°C
Kosteus 71%
Ilmanpaine 1016 hPa
Näkyvyys 10 km tai enemmän
Muutamia pilviä 2500 ft:n korkeudessa

METAR: LGAV 200620Z VRB01KT 9999 FEW025 11/06 Q1016 NOSIG

Aika: 08:57 (06:57 UTC)

Sääennuste

Tämä raportti tehtiin 1 tunti ja 57 minuuttia sitten, kello 05.00 UTC
Ennuste voimassa 20. päivästä klo 06 UTC - 21. päivään klo 06 UTC
Tuuli 16 kn etelästä/lounaasta
Näkyvyys 10 km tai enemmän
Hajanaisia pilviä 2000 ft:n korkeudessa

TAF: LGAV 200500Z 2006/2106 21016KT 9999 SCT020

Säähavainnot ja -ennusteet yli 4000 lentoasemalta (METAR- ja TAF-raportit).

Käytössä olevat sääasemat on merkitty karttaan keltaisilla ja punaisilla pisteillä.

Aseta hiiri pisteen päälle nähdäksesi sääaseman nimen.

Klikkaa sitten nähdäksesi säähavainnot ja -ennusteet.

Kartan vaihtaminen: klikkaa mustalla rastilla varustettuja vihreitä pisteitä, niin voit zoomata sisään; viivalla varustettua vihreää pistettä, niin voit zoomata ulos tai vihreitä nuolia, niin pääset viereisille kartoille.


METAR-TAF: